createdAt,value
2022-12-18T00:01:35.892Z,32.75
2022-12-18T00:04:05.346Z,44.93
2022-12-18T00:06:33.642Z,42.78
2022-12-18T00:09:01.973Z,40.15
2022-12-18T00:11:31.012Z,33.58
2022-12-18T00:14:00.193Z,57.92
2022-12-18T00:16:28.561Z,45.77
2022-12-18T00:18:58.127Z,46.33
2022-12-18T00:21:24.952Z,52.20
2022-12-18T00:23:52.712Z,89.25
2022-12-18T00:26:45.907Z,61.80
2022-12-18T00:29:15.047Z,37.27
2022-12-18T00:31:43.258Z,27.10
2022-12-18T00:34:14.317Z,24.42
2022-12-18T00:36:42.269Z,28.40
2022-12-18T00:39:09.590Z,46.90
2022-12-18T00:41:36.481Z,57.70
2022-12-18T00:44:04.513Z,45.90
2022-12-18T00:46:32.264Z,36.95
2022-12-18T00:48:59.619Z,42.55
2022-12-18T00:51:27.102Z,123.57
2022-12-18T00:53:54.273Z,236.23
2022-12-18T00:56:25.301Z,137.98
2022-12-18T00:58:52.188Z,127.13
2022-12-18T01:01:19.534Z,65.10
2022-12-18T01:03:46.567Z,74.97
2022-12-18T01:06:15.521Z,89.10
2022-12-18T01:08:42.326Z,85.22
2022-12-18T01:11:14.807Z,67.15
2022-12-18T01:13:42.013Z,85.53
2022-12-18T01:16:09.541Z,62.08
2022-12-18T01:18:36.756Z,61.87
2022-12-18T01:21:08.736Z,64.20
2022-12-18T01:23:35.726Z,58.65
2022-12-18T01:26:11.377Z,54.05
2022-12-18T01:28:38.912Z,26.70
2022-12-18T01:31:17.597Z,54.87
2022-12-18T01:33:45.195Z,132.20
2022-12-18T01:36:21.762Z,92.63
2022-12-18T01:38:48.954Z,113.30
2022-12-18T01:41:17.760Z,53.70
2022-12-18T01:43:51.993Z,86.13
2022-12-18T01:46:20.159Z,127.97
2022-12-18T01:48:51.199Z,119.78
2022-12-18T01:51:18.367Z,337.55
2022-12-18T01:53:47.310Z,281.77
2022-12-18T01:56:17.192Z,173.87
2022-12-18T01:59:13.216Z,214.40
2022-12-18T02:01:40.186Z,344.75
2022-12-18T02:04:25.985Z,278.00
2022-12-18T02:07:19.408Z,105.45
2022-12-18T02:09:56.165Z,106.60
2022-12-18T02:12:25.741Z,76.88
2022-12-18T02:15:07.036Z,242.38
2022-12-18T02:17:48.730Z,73.05
2022-12-18T02:20:29.386Z,52.72
2022-12-18T02:23:31.805Z,70.23
2022-12-18T02:26:33.139Z,51.67
2022-12-18T02:29:06.864Z,63.08
2022-12-18T02:31:41.205Z,94.80
2022-12-18T02:34:10.565Z,306.15
2022-12-18T02:36:41.472Z,279.67
2022-12-18T02:39:12.213Z,374.48
2022-12-18T02:41:39.760Z,246.30
2022-12-18T02:44:13.028Z,166.38
2022-12-18T02:46:43.893Z,117.70
2022-12-18T02:49:26.579Z,62.03
2022-12-18T02:52:19.614Z,50.25
2022-12-18T02:54:54.517Z,104.93
2022-12-18T02:57:51.506Z,63.92
2022-12-18T03:00:25.716Z,67.13
2022-12-18T03:03:15.784Z,88.83
2022-12-18T03:05:51.918Z,104.75
2022-12-18T03:08:37.302Z,102.85
2022-12-18T03:11:07.955Z,272.65
2022-12-18T03:13:40.681Z,242.60
2022-12-18T03:16:12.281Z,89.77
2022-12-18T03:19:01.988Z,68.25
2022-12-18T03:21:38.395Z,56.13
2022-12-18T03:24:08.977Z,52.05
2022-12-18T03:26:40.162Z,61.63
2022-12-18T03:29:16.279Z,116.20
2022-12-18T03:31:48.798Z,54.67
2022-12-18T03:34:23.012Z,233.57
2022-12-18T03:36:50.052Z,66.22
2022-12-18T03:39:16.972Z,42.47
2022-12-18T03:41:52.622Z,202.33
2022-12-18T03:44:29.595Z,71.07
2022-12-18T03:47:14.539Z,67.53
2022-12-18T03:49:56.647Z,108.22
2022-12-18T03:52:33.321Z,249.52
2022-12-18T03:55:02.987Z,71.93
2022-12-18T03:57:32.024Z,151.10
2022-12-18T04:00:03.321Z,110.40
2022-12-18T04:02:34.580Z,49.13
2022-12-18T04:05:06.096Z,91.40
2022-12-18T04:07:33.538Z,61.00
2022-12-18T04:10:02.698Z,58.58
2022-12-18T04:12:30.762Z,57.30
2022-12-18T04:14:57.634Z,153.27
2022-12-18T04:17:24.477Z,279.63
2022-12-18T04:19:51.411Z,78.27
2022-12-18T04:22:18.341Z,81.45
2022-12-18T04:24:45.296Z,42.50
2022-12-18T04:27:12.088Z,52.58
2022-12-18T04:29:38.957Z,50.63
2022-12-18T04:32:06.031Z,63.07
2022-12-18T04:34:32.861Z,77.50
2022-12-18T04:36:59.733Z,57.55
2022-12-18T04:39:26.580Z,58.38
2022-12-18T04:41:53.557Z,41.92
2022-12-18T04:44:20.347Z,45.37
2022-12-18T04:46:47.226Z,53.95
2022-12-18T04:49:14.067Z,55.47
2022-12-18T04:51:40.949Z,62.13
2022-12-18T04:54:07.739Z,74.80
2022-12-18T04:56:34.688Z,61.80
2022-12-18T04:59:01.537Z,109.28
2022-12-18T05:01:34.291Z,77.15
2022-12-18T05:04:02.925Z,85.45
2022-12-18T05:06:30.020Z,161.18
2022-12-18T05:08:56.912Z,84.70
2022-12-18T05:11:23.721Z,69.78
2022-12-18T05:13:52.249Z,69.50
2022-12-18T05:16:19.160Z,74.25
2022-12-18T05:18:46.067Z,68.63
2022-12-18T05:21:13.039Z,60.20
2022-12-18T05:23:40.236Z,44.50
2022-12-18T05:26:08.448Z,37.05
2022-12-18T05:28:36.611Z,61.38
2022-12-18T05:31:05.387Z,59.35
2022-12-18T05:33:34.556Z,57.20
2022-12-18T05:36:02.972Z,80.55
2022-12-18T05:38:31.569Z,74.78
2022-12-18T05:40:59.249Z,76.80
2022-12-18T05:43:27.384Z,57.13
2022-12-18T05:45:55.175Z,59.07
2022-12-18T05:48:22.193Z,55.75
2022-12-18T05:50:51.239Z,51.63
2022-12-18T05:53:20.100Z,54.40
2022-12-18T05:55:48.280Z,73.28
2022-12-18T05:58:16.640Z,63.50
2022-12-18T06:00:46.148Z,69.35
2022-12-18T06:03:15.909Z,55.72
2022-12-18T06:05:45.008Z,65.78
2022-12-18T06:08:13.405Z,67.15
2022-12-18T06:10:42.126Z,75.80
2022-12-18T06:13:09.513Z,103.93
2022-12-18T06:15:39.448Z,74.40
2022-12-18T06:18:06.401Z,55.97
2022-12-18T06:20:33.826Z,57.78
2022-12-18T06:23:02.545Z,64.33
2022-12-18T06:25:29.580Z,80.15
2022-12-18T06:27:56.532Z,73.15
2022-12-18T06:30:23.429Z,61.60
2022-12-18T06:32:56.375Z,73.07
2022-12-18T06:35:24.405Z,62.43
2022-12-18T06:37:54.343Z,54.40
2022-12-18T06:40:21.347Z,42.58
2022-12-18T06:42:50.396Z,61.85
2022-12-18T06:45:20.160Z,70.80
2022-12-18T06:47:47.252Z,117.33
2022-12-18T06:50:17.122Z,108.40
2022-12-18T06:52:46.545Z,109.93
2022-12-18T06:55:13.795Z,94.18
2022-12-18T06:57:40.667Z,104.75
2022-12-18T07:00:08.409Z,103.33
2022-12-18T07:02:35.745Z,299.75
2022-12-18T07:05:07.466Z,134.60
2022-12-18T07:07:37.491Z,236.38
2022-12-18T07:10:04.969Z,328.85
2022-12-18T07:12:32.045Z,132.67
2022-12-18T07:14:59.969Z,99.05
2022-12-18T07:17:26.744Z,118.70
2022-12-18T07:19:54.653Z,126.40
2022-12-18T07:22:21.577Z,110.93
2022-12-18T07:24:48.513Z,125.90
2022-12-18T07:27:15.341Z,64.05
2022-12-18T07:29:42.382Z,52.78
2022-12-18T07:32:09.513Z,75.53
2022-12-18T07:34:36.618Z,76.25
2022-12-18T07:37:06.589Z,81.07
2022-12-18T07:39:33.607Z,83.88
2022-12-18T07:42:00.619Z,84.78
2022-12-18T07:44:27.533Z,86.07
2022-12-18T07:46:54.403Z,89.65
2022-12-18T07:49:21.591Z,91.87
2022-12-18T07:51:48.419Z,109.30
2022-12-18T07:54:15.333Z,89.97
2022-12-18T07:56:42.247Z,101.13
2022-12-18T07:59:09.125Z,177.80
2022-12-18T08:01:36.177Z,121.10
2022-12-18T08:04:03.269Z,167.40
2022-12-18T08:06:30.297Z,132.13
2022-12-18T08:08:57.806Z,239.57
2022-12-18T08:11:27.380Z,159.88
2022-12-18T08:13:55.122Z,103.90
2022-12-18T08:16:23.253Z,97.32
2022-12-18T08:18:50.782Z,198.63
2022-12-18T08:21:23.618Z,91.18
2022-12-18T08:23:52.377Z,118.72
2022-12-18T08:26:19.943Z,109.27
2022-12-18T08:28:47.926Z,207.10
2022-12-18T08:31:15.389Z,131.20
2022-12-18T08:33:43.282Z,127.10
2022-12-18T08:36:11.219Z,115.03
2022-12-18T08:38:38.547Z,121.00
2022-12-18T08:41:11.638Z,94.68
2022-12-18T08:43:38.882Z,129.90
2022-12-18T08:46:06.144Z,248.32
2022-12-18T08:48:33.077Z,105.53
2022-12-18T08:51:01.089Z,124.10
2022-12-18T08:53:34.089Z,301.20
2022-12-18T08:56:02.746Z,293.05
2022-12-18T08:58:30.511Z,90.03
2022-12-18T09:01:27.231Z,75.22
2022-12-18T09:03:54.116Z,63.57
2022-12-18T09:06:22.836Z,172.05
2022-12-18T09:08:50.627Z,71.93
2022-12-18T09:11:26.500Z,46.17
2022-12-18T09:13:54.240Z,42.10
2022-12-18T09:16:25.019Z,63.30
2022-12-18T09:18:59.547Z,60.25
2022-12-18T09:21:29.082Z,54.65
2022-12-18T09:23:57.314Z,59.83
2022-12-18T09:26:25.251Z,55.15
2022-12-18T09:28:52.676Z,55.90
2022-12-18T09:31:22.267Z,54.90
2022-12-18T09:33:49.218Z,70.15
2022-12-18T09:36:18.128Z,51.67
2022-12-18T09:38:46.012Z,102.53
2022-12-18T09:41:42.000Z,62.53
2022-12-18T09:44:32.094Z,68.97
2022-12-18T09:47:04.793Z,59.10
2022-12-18T09:49:36.353Z,53.05
2022-12-18T09:52:12.833Z,63.17
2022-12-18T09:54:42.427Z,65.30
2022-12-18T09:57:15.732Z,81.60
2022-12-18T09:59:47.786Z,85.80
2022-12-18T10:02:21.142Z,90.38
2022-12-18T10:05:13.089Z,81.82
2022-12-18T10:07:56.429Z,82.03
2022-12-18T10:10:32.463Z,71.70
2022-12-18T10:13:04.691Z,79.03
2022-12-18T10:15:53.417Z,96.97
2022-12-18T10:18:46.790Z,76.75
2022-12-18T10:21:19.336Z,69.73
2022-12-18T10:24:32.470Z,73.55
2022-12-18T10:27:17.986Z,68.93
2022-12-18T10:29:46.937Z,87.15
2022-12-18T10:32:19.951Z,90.97
2022-12-18T10:34:48.721Z,76.87
2022-12-18T10:37:22.124Z,64.68
2022-12-18T10:40:19.849Z,89.75
2022-12-18T10:43:12.339Z,84.85
2022-12-18T10:45:39.388Z,90.53
2022-12-18T10:48:18.941Z,84.23
2022-12-18T10:51:10.338Z,87.85
2022-12-18T10:53:40.888Z,85.57
2022-12-18T10:56:08.206Z,86.05
2022-12-18T10:58:37.422Z,87.15
2022-12-18T11:01:09.078Z,99.73
2022-12-18T11:03:46.206Z,171.32
2022-12-18T11:06:14.236Z,115.78
2022-12-18T11:08:44.454Z,110.18
2022-12-18T11:11:22.845Z,109.13
2022-12-18T11:14:18.627Z,96.53
2022-12-18T11:17:23.870Z,105.88
2022-12-18T11:19:41.075Z,83.43
2022-12-18T11:22:27.761Z,135.18
2022-12-18T11:25:33.479Z,99.43
2022-12-18T11:28:26.473Z,58.93
2022-12-18T11:31:16.304Z,61.38
2022-12-18T11:34:12.024Z,58.03
2022-12-18T11:36:43.967Z,64.47
2022-12-18T11:39:18.688Z,61.80
2022-12-18T11:41:56.155Z,54.90
2022-12-18T11:44:31.219Z,65.05
2022-12-18T11:47:09.815Z,55.67
2022-12-18T11:49:37.624Z,64.43
2022-12-18T11:52:31.256Z,64.90
2022-12-18T11:55:02.729Z,56.80
2022-12-18T11:57:41.203Z,48.20
2022-12-18T12:00:20.144Z,51.38
2022-12-18T12:03:05.402Z,55.20
2022-12-18T12:05:41.575Z,66.30
2022-12-18T12:08:08.418Z,59.67
2022-12-18T12:10:48.101Z,50.50
2022-12-18T12:13:27.804Z,47.03
2022-12-18T12:16:00.953Z,48.67
2022-12-18T12:19:05.677Z,47.03
2022-12-18T12:21:44.536Z,57.57
2022-12-18T12:24:22.158Z,57.15
2022-12-18T12:27:03.970Z,54.78
2022-12-18T12:29:42.800Z,41.75
2022-12-18T12:32:21.528Z,46.58
2022-12-18T12:35:09.390Z,39.17
2022-12-18T12:37:36.603Z,43.08
2022-12-18T12:40:15.395Z,51.28
2022-12-18T12:43:16.535Z,56.28
2022-12-18T12:46:07.598Z,58.97
2022-12-18T12:49:04.013Z,62.73
2022-12-18T12:51:35.967Z,57.78
2022-12-18T12:54:05.669Z,58.35
2022-12-18T12:56:45.590Z,56.92
2022-12-18T12:59:20.060Z,95.00
2022-12-18T13:02:17.669Z,60.13
2022-12-18T13:04:58.484Z,77.95
2022-12-18T13:07:34.015Z,83.68
2022-12-18T13:10:19.317Z,98.40
2022-12-18T13:13:02.921Z,74.57
2022-12-18T13:15:44.309Z,56.63
2022-12-18T13:18:20.871Z,55.65
2022-12-18T13:20:59.948Z,64.18
2022-12-18T13:23:38.314Z,68.72
2022-12-18T13:26:08.246Z,77.70
2022-12-18T13:28:35.040Z,79.10
2022-12-18T13:31:03.452Z,63.58
2022-12-18T13:33:30.323Z,74.80
2022-12-18T13:36:30.366Z,88.25
2022-12-18T13:39:19.742Z,70.18
2022-12-18T13:42:06.712Z,58.17
2022-12-18T13:44:41.122Z,57.05
2022-12-18T13:47:38.833Z,86.47
2022-12-18T13:50:23.574Z,65.78
2022-12-18T13:52:52.468Z,66.40
2022-12-18T13:55:21.857Z,91.03
2022-12-18T13:57:48.817Z,59.85
2022-12-18T14:00:30.720Z,74.03
2022-12-18T14:02:59.781Z,72.15
2022-12-18T14:05:38.686Z,86.45
2022-12-18T14:08:14.061Z,59.80
2022-12-18T14:10:49.361Z,167.55
2022-12-18T14:13:30.638Z,114.85
2022-12-18T14:15:59.224Z,109.22
2022-12-18T14:18:53.847Z,167.43
2022-12-18T14:21:24.464Z,91.63
2022-12-18T14:24:05.864Z,135.07
2022-12-18T14:26:33.144Z,103.75
2022-12-18T14:29:18.672Z,100.97
2022-12-18T14:31:46.433Z,84.22
2022-12-18T14:34:19.545Z,83.20
2022-12-18T14:36:55.594Z,55.70
2022-12-18T14:39:23.069Z,82.57
2022-12-18T14:41:50.727Z,97.47
2022-12-18T14:44:17.565Z,82.35
2022-12-18T14:46:47.325Z,117.70
2022-12-18T14:49:35.514Z,215.02
2022-12-18T14:52:07.206Z,109.18
2022-12-18T14:54:38.439Z,54.78
2022-12-18T14:57:30.000Z,93.25
2022-12-18T15:00:08.703Z,46.37
2022-12-18T15:02:37.439Z,100.20
2022-12-18T15:05:30.924Z,90.95
2022-12-18T15:08:01.761Z,85.65
2022-12-18T15:10:33.960Z,126.47
2022-12-18T15:13:00.707Z,178.67
2022-12-18T15:15:36.392Z,109.47
2022-12-18T15:18:04.948Z,136.43
2022-12-18T15:20:33.645Z,212.63
2022-12-18T15:23:00.761Z,136.23
2022-12-18T15:25:37.451Z,203.20
2022-12-18T15:28:16.911Z,139.10
2022-12-18T15:31:00.483Z,111.22
2022-12-18T15:33:33.128Z,119.25
2022-12-18T15:36:09.267Z,228.75
2022-12-18T15:38:36.227Z,134.20
2022-12-18T15:41:03.841Z,146.68
2022-12-18T15:43:31.249Z,72.95
2022-12-18T15:45:58.038Z,74.93
2022-12-18T15:48:25.024Z,77.63
2022-12-18T15:50:54.969Z,68.57
2022-12-18T15:53:21.946Z,66.78
2022-12-18T15:55:49.054Z,85.03
2022-12-18T15:58:15.884Z,78.00
2022-12-18T16:00:43.452Z,114.85
2022-12-18T16:03:12.083Z,71.63
2022-12-18T16:05:53.795Z,69.82
2022-12-18T16:08:21.248Z,59.53
2022-12-18T16:10:48.711Z,76.70
2022-12-18T16:13:20.398Z,63.38
2022-12-18T16:15:47.405Z,65.20
2022-12-18T16:18:16.989Z,65.00
2022-12-18T16:20:43.890Z,82.70
2022-12-18T16:23:11.068Z,59.80
2022-12-18T16:25:38.833Z,53.40
2022-12-18T16:28:06.365Z,48.10
2022-12-18T16:30:44.613Z,49.65
2022-12-18T16:33:11.737Z,48.42
2022-12-18T16:35:38.591Z,53.17
2022-12-18T16:38:05.604Z,60.30
2022-12-18T16:40:34.217Z,57.43
2022-12-18T16:43:02.683Z,53.38
2022-12-18T16:45:29.817Z,61.60
2022-12-18T16:47:56.812Z,64.68
2022-12-18T16:50:26.709Z,58.70
2022-12-18T16:52:54.735Z,57.83
2022-12-18T16:55:25.818Z,56.33
2022-12-18T16:57:52.835Z,64.47
2022-12-18T17:00:19.891Z,65.00
2022-12-18T17:02:47.199Z,62.60
2022-12-18T17:05:14.132Z,64.67
2022-12-18T17:07:40.943Z,65.32
2022-12-18T17:10:09.428Z,75.13
2022-12-18T17:12:40.044Z,66.78
2022-12-18T17:15:07.838Z,95.28
2022-12-18T17:17:34.805Z,195.10
2022-12-18T17:20:01.721Z,209.60
2022-12-18T17:22:29.051Z,88.80
2022-12-18T17:24:56.461Z,94.47
2022-12-18T17:27:23.343Z,71.63
2022-12-18T17:29:51.440Z,68.23
2022-12-18T17:32:18.363Z,64.50
2022-12-18T17:34:45.349Z,51.33
2022-12-18T17:37:12.875Z,57.90
2022-12-18T17:39:39.954Z,55.78
2022-12-18T17:42:07.661Z,71.43
2022-12-18T17:44:35.905Z,68.97
2022-12-18T17:47:06.337Z,185.63
2022-12-18T17:49:35.913Z,125.22
2022-12-18T17:52:02.789Z,116.40
2022-12-18T17:54:29.704Z,135.43
2022-12-18T17:56:57.291Z,152.40
2022-12-18T17:59:24.182Z,86.68
2022-12-18T18:01:51.214Z,50.90
2022-12-18T18:04:19.100Z,113.65
2022-12-18T18:06:46.272Z,38.13
2022-12-18T18:09:16.295Z,43.47
2022-12-18T18:11:45.164Z,78.50
2022-12-18T18:14:18.471Z,166.93
2022-12-18T18:16:47.979Z,92.47
2022-12-18T18:19:18.813Z,493.67
2022-12-18T18:21:48.234Z,174.60
2022-12-18T18:24:19.355Z,58.67
2022-12-18T18:26:47.226Z,243.43
2022-12-18T18:29:20.282Z,87.40
2022-12-18T18:31:48.201Z,153.40
2022-12-18T18:34:27.409Z,217.73
2022-12-18T18:36:54.509Z,199.05
2022-12-18T18:39:21.444Z,219.50
2022-12-18T18:41:48.842Z,371.83
2022-12-18T18:44:20.514Z,128.23
2022-12-18T18:46:51.475Z,167.40
2022-12-18T18:49:18.327Z,104.20
2022-12-18T18:51:45.243Z,26.73
2022-12-18T18:54:12.195Z,94.13
2022-12-18T18:57:18.947Z,243.00
2022-12-18T18:59:31.899Z,196.75
2022-12-18T19:02:04.701Z,189.40
2022-12-18T19:04:33.877Z,195.07
2022-12-18T19:07:01.229Z,296.70
2022-12-18T19:09:31.606Z,220.70
2022-12-18T19:11:58.739Z,187.13
2022-12-18T19:14:25.828Z,222.75
2022-12-18T19:16:52.772Z,233.52
2022-12-18T19:19:20.208Z,101.90
2022-12-18T19:21:47.896Z,50.97
2022-12-18T19:24:14.736Z,124.05
2022-12-18T19:26:41.574Z,126.90
2022-12-18T19:29:09.762Z,188.90
2022-12-18T19:31:37.473Z,110.88
2022-12-18T19:34:05.936Z,139.67
2022-12-18T19:36:34.281Z,160.18
2022-12-18T19:39:02.323Z,321.23
2022-12-18T19:41:32.974Z,197.73
2022-12-18T19:44:02.406Z,236.38
2022-12-18T19:46:35.296Z,177.67
2022-12-18T19:49:02.724Z,83.93
2022-12-18T19:51:31.695Z,103.78
2022-12-18T19:54:01.950Z,164.15
2022-12-18T19:56:37.036Z,213.73
2022-12-18T19:59:04.544Z,159.33
2022-12-18T20:01:32.447Z,146.77
2022-12-18T20:03:59.765Z,216.30
2022-12-18T20:06:38.894Z,196.82
2022-12-18T20:09:06.948Z,123.93
2022-12-18T20:11:41.381Z,165.00
2022-12-18T20:14:10.650Z,137.85
2022-12-18T20:16:38.593Z,128.38
2022-12-18T20:19:10.208Z,208.43
2022-12-18T20:21:37.967Z,172.80
2022-12-18T20:24:05.398Z,105.83
2022-12-18T20:26:32.455Z,54.53
2022-12-18T20:28:59.447Z,58.83
2022-12-18T20:31:26.417Z,76.97
2022-12-18T20:33:55.635Z,78.22
2022-12-18T20:36:29.509Z,37.03
2022-12-18T20:39:00.454Z,106.70
2022-12-18T20:41:38.187Z,56.00
2022-12-18T20:44:23.650Z,51.95
2022-12-18T20:46:58.113Z,83.10
2022-12-18T20:49:27.004Z,73.63
2022-12-18T20:51:57.756Z,121.18
2022-12-18T20:54:27.821Z,149.07
2022-12-18T20:56:55.836Z,231.75
2022-12-18T20:59:22.990Z,29.73
2022-12-18T21:01:50.305Z,259.70
2022-12-18T21:04:19.176Z,92.13
2022-12-18T21:06:52.400Z,36.10
2022-12-18T21:09:23.141Z,230.13
2022-12-18T21:11:50.536Z,59.30
2022-12-18T21:14:20.333Z,299.83
2022-12-18T21:16:48.179Z,143.85
2022-12-18T21:19:21.059Z,142.32
2022-12-18T21:21:47.994Z,229.93
2022-12-18T21:24:15.656Z,380.67
2022-12-18T21:26:45.881Z,325.50
2022-12-18T21:29:19.600Z,275.63
2022-12-18T21:31:46.724Z,415.25
2022-12-18T21:34:23.047Z,331.38
2022-12-18T21:36:50.078Z,95.55
2022-12-18T21:39:17.769Z,152.23
2022-12-18T21:41:46.720Z,160.82
2022-12-18T21:44:16.516Z,381.67
2022-12-18T21:46:50.144Z,201.57
2022-12-18T21:49:20.639Z,123.28
2022-12-18T21:51:49.595Z,136.40
2022-12-18T21:54:17.518Z,148.05
2022-12-18T21:57:00.716Z,241.30
2022-12-18T21:59:31.863Z,299.80
2022-12-18T22:02:02.353Z,341.98
2022-12-18T22:04:29.745Z,378.17
2022-12-18T22:06:57.084Z,420.08
2022-12-18T22:09:25.168Z,343.38
2022-12-18T22:11:52.750Z,281.05
2022-12-18T22:14:20.933Z,354.17
2022-12-18T22:16:48.099Z,400.10
2022-12-18T22:19:16.978Z,298.55
2022-12-18T22:21:48.126Z,485.20
2022-12-18T22:24:26.105Z,344.75
2022-12-18T22:26:54.006Z,458.58
2022-12-18T22:29:29.148Z,408.00
2022-12-18T22:31:57.147Z,460.50
2022-12-18T22:34:24.089Z,449.20
2022-12-18T22:36:51.162Z,404.77
2022-12-18T22:39:20.819Z,381.92
2022-12-18T22:41:48.335Z,365.80
2022-12-18T22:44:17.537Z,216.57
2022-12-18T22:46:51.398Z,66.25
2022-12-18T22:49:32.670Z,56.63
2022-12-18T22:52:01.644Z,58.15
2022-12-18T22:54:28.541Z,49.50
2022-12-18T22:56:55.788Z,40.60
2022-12-18T22:59:24.064Z,20.70
2022-12-18T23:01:57.112Z,26.50
2022-12-18T23:04:27.835Z,46.33
2022-12-18T23:06:58.030Z,50.27
2022-12-18T23:09:24.897Z,91.28
2022-12-18T23:11:51.723Z,66.50
2022-12-18T23:14:18.592Z,66.65
2022-12-18T23:16:45.586Z,151.70
2022-12-18T23:19:14.258Z,192.77
2022-12-18T23:21:46.387Z,173.85
2022-12-18T23:24:13.389Z,24.05
2022-12-18T23:26:40.418Z,19.33
2022-12-18T23:29:07.658Z,20.58
2022-12-18T23:31:37.149Z,22.07
2022-12-18T23:34:05.997Z,25.35
2022-12-18T23:36:35.852Z,58.80
2022-12-18T23:39:15.607Z,26.48
2022-12-18T23:41:58.150Z,25.20
2022-12-18T23:44:25.275Z,23.67
2022-12-18T23:46:52.146Z,22.45
2022-12-18T23:49:18.995Z,30.98
2022-12-18T23:51:45.884Z,28.25
2022-12-18T23:54:12.712Z,17.05
2022-12-18T23:56:39.609Z,14.67
2022-12-18T23:59:06.554Z,15.52
